createdAt,value
2018-11-07T00:00:06.284Z,791.23
2018-11-07T00:02:35.285Z,794.63
2018-11-07T00:05:04.458Z,793.47
2018-11-07T00:07:33.449Z,796.83
2018-11-07T00:10:02.412Z,806.53
2018-11-07T00:12:31.392Z,797.73
2018-11-07T00:15:00.372Z,802.50
2018-11-07T00:17:29.440Z,787.07
2018-11-07T00:19:58.386Z,822.00
2018-11-07T00:22:27.405Z,817.40
2018-11-07T00:24:56.416Z,802.93
2018-11-07T00:27:25.375Z,812.80
2018-11-07T00:29:54.403Z,793.60
2018-11-07T00:32:23.406Z,787.63
2018-11-07T00:34:53.149Z,795.40
2018-11-07T00:37:22.136Z,801.07
2018-11-07T00:39:51.139Z,806.47
2018-11-07T00:42:20.187Z,816.50
2018-11-07T00:44:49.187Z,830.50
2018-11-07T00:47:18.200Z,816.80
2018-11-07T00:49:47.207Z,807.03
2018-11-07T00:52:16.259Z,802.87
2018-11-07T00:54:45.216Z,814.57
2018-11-07T00:57:14.237Z,799.27
2018-11-07T00:59:43.228Z,813.23
2018-11-07T01:02:12.316Z,813.03
2018-11-07T01:04:41.332Z,797.47
2018-11-07T01:07:10.319Z,810.17
2018-11-07T01:09:39.637Z,803.53
2018-11-07T01:12:08.684Z,806.47
2018-11-07T01:14:37.684Z,812.50
2018-11-07T01:17:06.709Z,805.70
2018-11-07T01:19:35.977Z,803.43
2018-11-07T01:22:05.344Z,807.00
2018-11-07T01:24:34.346Z,804.00
2018-11-07T01:27:03.373Z,800.73
2018-11-07T01:29:32.414Z,802.90
2018-11-07T01:32:02.117Z,811.63
2018-11-07T01:34:31.173Z,826.13
2018-11-07T01:37:00.178Z,813.90
2018-11-07T01:39:29.202Z,804.53
2018-11-07T01:41:58.219Z,823.07
2018-11-07T01:44:27.284Z,802.10
2018-11-07T01:46:56.229Z,831.13
2018-11-07T01:49:25.267Z,821.10
2018-11-07T01:51:54.244Z,824.97
2018-11-07T01:54:23.263Z,799.43
2018-11-07T01:56:52.296Z,812.37
2018-11-07T01:59:21.351Z,809.00
2018-11-07T02:01:50.356Z,828.80
2018-11-07T02:04:19.388Z,762.33
2018-11-07T02:06:48.403Z,731.27
2018-11-07T02:09:17.409Z,726.80
2018-11-07T02:11:46.438Z,733.40
2018-11-07T02:14:15.441Z,733.50
2018-11-07T02:16:44.757Z,753.37
2018-11-07T02:19:13.733Z,727.00
2018-11-07T02:21:42.776Z,736.63
2018-11-07T02:24:12.301Z,750.83
2018-11-07T02:26:41.383Z,748.87
2018-11-07T02:29:13.789Z,756.23
2018-11-07T02:31:44.707Z,764.90
2018-11-07T02:34:20.127Z,778.13
2018-11-07T02:36:49.244Z,778.30
2018-11-07T02:39:18.214Z,793.00
2018-11-07T02:41:47.306Z,780.60
2018-11-07T02:44:16.281Z,782.20
2018-11-07T02:46:45.324Z,786.80
2018-11-07T02:49:15.865Z,788.93
2018-11-07T02:51:44.924Z,781.03
2018-11-07T02:54:13.996Z,788.53
2018-11-07T02:56:43.026Z,781.13
2018-11-07T02:59:12.036Z,785.60
2018-11-07T03:01:40.988Z,782.03
2018-11-07T03:04:09.991Z,770.07
2018-11-07T03:06:38.956Z,791.70
2018-11-07T03:09:09.413Z,791.03
2018-11-07T03:11:38.708Z,777.03
2018-11-07T03:14:08.857Z,768.10
2018-11-07T03:16:38.191Z,776.07
2018-11-07T03:19:07.640Z,756.13
2018-11-07T03:21:36.693Z,742.60
2018-11-07T03:24:05.855Z,758.33
2018-11-07T03:26:34.932Z,742.83
2018-11-07T03:29:04.094Z,742.23
2018-11-07T03:31:33.117Z,740.23
2018-11-07T03:34:02.154Z,730.33
2018-11-07T03:36:31.258Z,750.23
2018-11-07T03:39:00.241Z,769.57
2018-11-07T03:41:29.282Z,794.73
2018-11-07T03:43:58.269Z,770.83
2018-11-07T03:46:27.269Z,769.10
2018-11-07T03:48:56.335Z,769.90
2018-11-07T03:51:25.341Z,786.43
2018-11-07T03:53:54.373Z,796.77
2018-11-07T03:56:23.377Z,800.17
2018-11-07T03:58:52.392Z,781.57
2018-11-07T04:01:21.380Z,788.57
2018-11-07T04:03:50.365Z,789.03
2018-11-07T04:06:19.424Z,812.83
2018-11-07T04:08:48.488Z,784.17
2018-11-07T04:11:17.557Z,792.37
2018-11-07T04:13:46.577Z,781.93
2018-11-07T04:16:15.553Z,791.53
2018-11-07T04:18:44.595Z,787.13
2018-11-07T04:21:13.725Z,776.23
2018-11-07T04:23:46.964Z,790.60
2018-11-07T04:26:15.947Z,748.33
2018-11-07T04:28:44.976Z,756.30
2018-11-07T04:31:13.966Z,780.60
2018-11-07T04:33:43.022Z,739.80
2018-11-07T04:36:12.001Z,756.03
2018-11-07T04:38:41.029Z,750.00
2018-11-07T04:41:10.076Z,759.90
2018-11-07T04:43:39.165Z,760.33
2018-11-07T04:46:08.512Z,775.53
2018-11-07T04:48:37.642Z,781.13
2018-11-07T04:51:07.183Z,771.70
2018-11-07T04:53:36.812Z,776.00
2018-11-07T04:56:06.024Z,776.37
2018-11-07T04:58:35.643Z,795.57
2018-11-07T05:01:05.200Z,777.03
2018-11-07T05:03:34.460Z,790.90
2018-11-07T05:06:03.765Z,767.93
2018-11-07T05:08:32.827Z,785.73
2018-11-07T05:11:01.882Z,785.73
2018-11-07T05:13:30.893Z,807.13
2018-11-07T05:16:00.081Z,793.17
2018-11-07T05:18:29.087Z,784.93
2018-11-07T05:20:58.161Z,781.20
2018-11-07T05:23:27.505Z,783.87
2018-11-07T05:25:56.658Z,779.77
2018-11-07T05:28:25.874Z,772.03
2018-11-07T05:30:55.064Z,769.63
2018-11-07T05:33:24.184Z,777.70
2018-11-07T05:35:53.347Z,767.97
2018-11-07T05:38:22.496Z,748.57
2018-11-07T05:40:51.841Z,756.70
2018-11-07T05:43:20.903Z,754.10
2018-11-07T05:45:49.960Z,753.83
2018-11-07T05:48:18.989Z,742.20
2018-11-07T05:50:48.343Z,744.13
2018-11-07T05:53:17.425Z,775.50
2018-11-07T05:55:46.438Z,774.90
2018-11-07T05:58:15.449Z,762.40
2018-11-07T06:00:44.612Z,767.23
2018-11-07T06:03:13.654Z,772.27
2018-11-07T06:05:42.691Z,777.10
2018-11-07T06:08:11.770Z,770.17
2018-11-07T06:10:40.786Z,773.00
2018-11-07T06:13:09.839Z,768.17
2018-11-07T06:15:38.807Z,760.60
2018-11-07T06:18:07.853Z,751.33
2018-11-07T06:20:36.898Z,743.17
2018-11-07T06:23:06.010Z,743.10
2018-11-07T06:25:35.029Z,715.80
2018-11-07T06:28:04.060Z,692.87
2018-11-07T06:30:33.081Z,709.40
2018-11-07T06:33:02.156Z,703.73
2018-11-07T06:35:31.173Z,689.80
2018-11-07T06:38:00.197Z,682.77
2018-11-07T06:40:29.214Z,697.37
2018-11-07T06:42:58.192Z,703.50
2018-11-07T06:45:27.458Z,692.27
2018-11-07T06:47:56.511Z,708.57
2018-11-07T06:50:25.684Z,698.07
2018-11-07T06:52:54.863Z,710.00
2018-11-07T06:55:24.089Z,710.77
2018-11-07T06:57:53.132Z,747.00
2018-11-07T07:00:22.253Z,706.63
2018-11-07T07:02:51.297Z,722.57
2018-11-07T07:05:20.374Z,718.73
2018-11-07T07:07:49.421Z,725.57
2018-11-07T07:10:18.828Z,719.67
2018-11-07T07:12:47.908Z,739.43
2018-11-07T07:15:17.085Z,726.30
2018-11-07T07:17:46.270Z,714.43
2018-11-07T07:20:18.106Z,737.50
2018-11-07T07:22:47.777Z,721.87
2018-11-07T07:25:17.080Z,685.77
2018-11-07T07:27:46.896Z,664.43
2018-11-07T07:30:17.213Z,613.73
2018-11-07T07:32:46.732Z,576.27
2018-11-07T07:35:16.089Z,564.80
2018-11-07T07:37:45.165Z,571.87
2018-11-07T07:40:15.296Z,604.83
2018-11-07T07:42:45.018Z,643.00
2018-11-07T07:45:16.638Z,629.47
2018-11-07T07:47:46.063Z,653.37
2018-11-07T07:50:16.266Z,700.40
2018-11-07T07:52:45.760Z,727.47
2018-11-07T07:55:14.809Z,734.93
2018-11-07T07:57:44.144Z,755.20
2018-11-07T08:00:17.575Z,779.03
2018-11-07T08:02:47.724Z,757.43
2018-11-07T08:05:16.869Z,758.80
2018-11-07T08:07:46.482Z,753.03
2018-11-07T08:10:16.784Z,746.37
2018-11-07T08:12:46.158Z,747.83
2018-11-07T08:15:15.802Z,769.90
2018-11-07T08:17:45.302Z,773.97
2018-11-07T08:20:15.433Z,742.10
2018-11-07T08:22:45.272Z,667.57
2018-11-07T08:25:14.313Z,680.53
2018-11-07T08:27:43.304Z,551.57
2018-11-07T08:30:16.317Z,515.97
2018-11-07T08:32:45.455Z,559.87
2018-11-07T08:35:15.110Z,602.03
2018-11-07T08:37:45.062Z,671.07
2018-11-07T08:40:17.312Z,715.40
2018-11-07T08:42:46.658Z,750.53
2018-11-07T08:45:15.721Z,746.07
2018-11-07T08:47:45.537Z,766.57
2018-11-07T08:50:16.017Z,747.50
2018-11-07T08:52:45.877Z,756.17
2018-11-07T08:55:16.458Z,737.77
2018-11-07T08:57:45.564Z,737.37
2018-11-07T09:00:16.018Z,730.00
2018-11-07T09:02:45.433Z,725.07
2018-11-07T09:05:15.161Z,728.97
2018-11-07T09:07:44.955Z,750.17
2018-11-07T09:10:15.246Z,731.53
2018-11-07T09:12:44.377Z,769.50
2018-11-07T09:15:14.484Z,775.47
2018-11-07T09:17:43.562Z,759.73
2018-11-07T09:20:20.870Z,781.50
2018-11-07T09:22:49.860Z,790.07
2018-11-07T09:25:18.969Z,810.57
2018-11-07T09:27:48.437Z,814.00
2018-11-07T09:30:18.886Z,829.80
2018-11-07T09:32:47.933Z,810.43
2018-11-07T09:35:17.222Z,823.77
2018-11-07T09:37:50.493Z,775.70
2018-11-07T09:40:20.780Z,770.00
2018-11-07T09:42:50.227Z,731.77
2018-11-07T09:45:20.587Z,703.73
2018-11-07T09:47:49.627Z,716.37
2018-11-07T09:50:19.231Z,668.53
2018-11-07T09:52:48.329Z,597.60
2018-11-07T09:55:18.783Z,587.43
2018-11-07T09:57:47.880Z,580.60
2018-11-07T10:00:19.200Z,592.53
2018-11-07T10:02:48.338Z,574.73
2018-11-07T10:05:18.511Z,566.03
2018-11-07T10:07:48.324Z,576.00
2018-11-07T10:10:18.780Z,544.07
2018-11-07T10:12:47.904Z,465.43
2018-11-07T10:15:17.170Z,458.23
2018-11-07T10:17:46.273Z,469.50
2018-11-07T10:20:23.043Z,444.23
2018-11-07T10:22:52.086Z,426.00
2018-11-07T10:25:21.168Z,407.03
2018-11-07T10:27:57.314Z,412.27
2018-11-07T10:30:26.284Z,405.13
2018-11-07T10:32:55.239Z,413.97
2018-11-07T10:35:24.322Z,562.97
2018-11-07T10:37:53.406Z,623.47
2018-11-07T10:40:24.208Z,636.63
2018-11-07T10:42:53.401Z,623.40
2018-11-07T10:45:22.557Z,683.77
2018-11-07T10:47:51.888Z,665.43
2018-11-07T10:50:21.644Z,663.83
2018-11-07T10:52:50.923Z,617.57
2018-11-07T10:55:20.024Z,599.00
2018-11-07T10:57:57.537Z,578.70
2018-11-07T11:00:37.053Z,535.97
2018-11-07T11:03:11.723Z,533.53
2018-11-07T11:05:41.013Z,534.97
2018-11-07T11:08:10.556Z,543.27
2018-11-07T11:10:39.953Z,522.17
2018-11-07T11:13:09.056Z,538.37
2018-11-07T11:15:38.091Z,512.83
2018-11-07T11:18:07.139Z,515.40
2018-11-07T11:20:36.231Z,525.73
2018-11-07T11:23:05.354Z,525.27
2018-11-07T11:25:34.440Z,542.60
2018-11-07T11:28:03.472Z,506.40
2018-11-07T11:30:32.544Z,528.17
2018-11-07T11:33:05.394Z,538.43
2018-11-07T11:35:34.413Z,509.17
2018-11-07T11:38:03.530Z,515.10
2018-11-07T11:40:36.698Z,488.83
2018-11-07T11:43:05.890Z,501.57
2018-11-07T11:45:34.927Z,490.37
2018-11-07T11:48:03.973Z,479.13
2018-11-07T11:50:33.055Z,482.07
2018-11-07T11:53:02.183Z,477.77
2018-11-07T11:55:31.228Z,482.53
2018-11-07T11:58:00.245Z,480.53
2018-11-07T12:00:29.292Z,480.13
2018-11-07T12:02:58.345Z,485.07
2018-11-07T12:05:27.476Z,488.33
2018-11-07T12:07:56.547Z,465.47
2018-11-07T12:10:26.267Z,476.70
2018-11-07T12:12:56.538Z,474.03
2018-11-07T12:15:26.903Z,503.57
2018-11-07T12:17:56.374Z,486.37
2018-11-07T12:20:29.476Z,486.90
2018-11-07T12:22:58.547Z,486.50
2018-11-07T12:25:27.566Z,523.67
2018-11-07T12:27:56.645Z,545.57
2018-11-07T12:30:25.678Z,531.77
2018-11-07T12:32:55.127Z,457.03
2018-11-07T12:35:24.433Z,383.23
2018-11-07T12:37:53.664Z,354.13
2018-11-07T12:40:22.671Z,329.63
2018-11-07T12:42:51.907Z,327.87
2018-11-07T12:45:20.895Z,300.93
2018-11-07T12:47:50.067Z,273.43
2018-11-07T12:50:22.431Z,310.03
2018-11-07T12:52:51.402Z,341.23
2018-11-07T12:55:21.632Z,322.97
2018-11-07T12:57:51.262Z,324.47
2018-11-07T13:00:25.052Z,279.47
2018-11-07T13:02:54.083Z,278.07
2018-11-07T13:05:23.920Z,303.73
2018-11-07T13:07:53.782Z,410.50
2018-11-07T13:10:23.615Z,389.90
2018-11-07T13:12:53.330Z,404.07
2018-11-07T13:15:22.548Z,403.30
2018-11-07T13:17:52.299Z,367.87
2018-11-07T13:20:23.835Z,357.97
2018-11-07T13:22:53.760Z,329.77
2018-11-07T13:25:23.277Z,309.20
2018-11-07T13:27:55.084Z,336.67
2018-11-07T13:30:25.476Z,359.33
2018-11-07T13:32:55.662Z,332.63
2018-11-07T13:35:24.668Z,335.10
2018-11-07T13:37:54.268Z,377.93
2018-11-07T13:40:25.706Z,313.30
2018-11-07T13:42:55.696Z,360.60
2018-11-07T13:45:25.437Z,353.87
2018-11-07T13:47:55.952Z,318.07
2018-11-07T13:50:25.055Z,328.17
2018-11-07T13:52:54.244Z,313.20
2018-11-07T13:55:23.391Z,310.27
2018-11-07T13:57:52.681Z,328.90
2018-11-07T14:00:22.994Z,300.20
2018-11-07T14:02:52.943Z,260.93
2018-11-07T14:05:22.269Z,252.87
2018-11-07T14:07:51.735Z,220.17
2018-11-07T14:10:22.831Z,223.73
2018-11-07T14:12:52.281Z,203.30
2018-11-07T14:15:21.454Z,205.60
2018-11-07T14:17:50.687Z,226.93
2018-11-07T14:20:20.044Z,216.07
2018-11-07T14:22:49.097Z,218.33
2018-11-07T14:25:18.165Z,195.40
2018-11-07T14:27:47.527Z,201.23
2018-11-07T14:30:17.895Z,171.23
2018-11-07T14:32:56.006Z,176.77
2018-11-07T14:35:25.363Z,185.40
2018-11-07T14:37:55.352Z,159.93
2018-11-07T14:40:24.617Z,185.63
2018-11-07T14:42:53.677Z,172.20
2018-11-07T14:45:22.992Z,167.30
2018-11-07T14:47:53.415Z,190.77
2018-11-07T14:50:22.446Z,191.23
2018-11-07T14:52:51.726Z,196.27
2018-11-07T14:55:21.341Z,213.17
2018-11-07T14:57:50.498Z,218.90
2018-11-07T15:00:19.742Z,236.10
2018-11-07T15:02:49.036Z,242.83
2018-11-07T15:05:19.148Z,261.13
2018-11-07T15:07:48.711Z,291.47
2018-11-07T15:10:18.335Z,303.10
2018-11-07T15:12:47.552Z,312.33
2018-11-07T15:15:18.409Z,317.93
2018-11-07T15:17:47.525Z,336.33
2018-11-07T15:20:17.806Z,350.80
2018-11-07T15:22:46.871Z,348.93
2018-11-07T15:25:17.042Z,363.43
2018-11-07T15:27:46.986Z,379.93
2018-11-07T15:30:16.753Z,385.03
2018-11-07T15:32:46.105Z,400.27
2018-11-07T15:35:15.117Z,418.53
2018-11-07T15:37:44.180Z,442.13
2018-11-07T15:40:16.278Z,435.00
2018-11-07T15:42:45.849Z,447.10
2018-11-07T15:45:17.384Z,449.77
2018-11-07T15:47:46.416Z,436.87
2018-11-07T15:50:20.833Z,436.37
2018-11-07T15:52:50.343Z,415.73
2018-11-07T15:55:19.453Z,409.30
2018-11-07T15:57:48.445Z,411.10
2018-11-07T16:00:18.494Z,405.13
2018-11-07T16:02:47.473Z,397.13
2018-11-07T16:05:17.068Z,383.50
2018-11-07T16:07:46.120Z,372.27
2018-11-07T16:10:17.131Z,354.83
2018-11-07T16:12:46.064Z,372.90
2018-11-07T16:15:16.703Z,361.33
2018-11-07T16:17:45.941Z,354.67
2018-11-07T16:20:17.405Z,370.57
2018-11-07T16:22:47.314Z,350.73
2018-11-07T16:25:16.291Z,327.43
2018-11-07T16:27:45.588Z,335.17
2018-11-07T16:30:20.954Z,341.77
2018-11-07T16:32:49.955Z,322.83
2018-11-07T16:35:18.937Z,343.00
2018-11-07T16:37:48.004Z,321.40
2018-11-07T16:40:18.167Z,324.20
2018-11-07T16:42:47.677Z,334.73
2018-11-07T16:45:17.520Z,330.83
2018-11-07T16:47:46.652Z,355.90
2018-11-07T16:50:23.826Z,351.77
2018-11-07T16:52:52.854Z,339.90
2018-11-07T16:55:22.049Z,338.63
2018-11-07T16:57:51.113Z,356.00
2018-11-07T17:00:22.968Z,363.67
2018-11-07T17:02:52.417Z,355.80
2018-11-07T17:05:21.587Z,348.73
2018-11-07T17:07:50.616Z,371.57
2018-11-07T17:10:19.616Z,358.70
2018-11-07T17:12:48.664Z,360.47
2018-11-07T17:15:17.723Z,370.07
2018-11-07T17:17:46.769Z,371.93
2018-11-07T17:20:16.296Z,389.20
2018-11-07T17:22:45.381Z,386.73
2018-11-07T17:25:16.489Z,376.77
2018-11-07T17:27:45.581Z,377.07
2018-11-07T17:30:15.649Z,359.30
2018-11-07T17:32:44.694Z,365.73
2018-11-07T17:35:15.810Z,344.57
2018-11-07T17:37:45.400Z,341.47
2018-11-07T17:40:20.655Z,368.73
2018-11-07T17:42:50.088Z,373.17
2018-11-07T17:45:20.421Z,367.30
2018-11-07T17:47:50.875Z,370.57
2018-11-07T17:50:20.842Z,401.07
2018-11-07T17:52:50.377Z,400.37
2018-11-07T17:55:20.251Z,400.13
2018-11-07T17:57:49.394Z,378.70
2018-11-07T18:00:21.690Z,400.07
2018-11-07T18:02:51.115Z,410.13
2018-11-07T18:05:20.199Z,381.17
2018-11-07T18:07:49.309Z,368.43
2018-11-07T18:10:19.173Z,406.43
2018-11-07T18:12:48.299Z,419.53
2018-11-07T18:15:17.465Z,426.77
2018-11-07T18:17:46.542Z,430.37
2018-11-07T18:20:16.503Z,433.17
2018-11-07T18:22:45.493Z,434.77
2018-11-07T18:25:15.582Z,453.00
2018-11-07T18:27:44.718Z,467.90
2018-11-07T18:30:15.162Z,457.33
2018-11-07T18:32:45.069Z,475.07
2018-11-07T18:35:16.015Z,463.77
2018-11-07T18:37:45.700Z,449.57
2018-11-07T18:40:16.164Z,463.43
2018-11-07T18:42:45.446Z,445.63
2018-11-07T18:45:14.874Z,453.70
2018-11-07T18:47:45.222Z,481.73
2018-11-07T18:50:15.804Z,468.93
2018-11-07T18:52:45.180Z,442.97
2018-11-07T18:55:15.452Z,452.93
2018-11-07T18:57:45.210Z,440.43
2018-11-07T19:00:16.205Z,437.47
2018-11-07T19:02:46.643Z,443.10
2018-11-07T19:05:15.759Z,424.57
2018-11-07T19:07:44.977Z,440.63
2018-11-07T19:10:16.143Z,431.23
2018-11-07T19:12:46.191Z,420.63
2018-11-07T19:15:15.897Z,429.70
2018-11-07T19:17:45.751Z,426.03
2018-11-07T19:20:15.532Z,434.43
2018-11-07T19:22:44.556Z,448.30
2018-11-07T19:25:17.767Z,440.90
2018-11-07T19:27:46.805Z,459.10
2018-11-07T19:30:18.067Z,430.80
2018-11-07T19:32:48.674Z,438.37
2018-11-07T19:35:18.335Z,477.73
2018-11-07T19:37:48.018Z,494.63
2018-11-07T19:40:18.543Z,495.27
2018-11-07T19:42:47.514Z,462.03
2018-11-07T19:45:17.801Z,442.70
2018-11-07T19:47:46.883Z,418.23
2018-11-07T19:50:17.207Z,406.23
2018-11-07T19:52:47.117Z,421.40
2018-11-07T19:55:18.989Z,413.43
2018-11-07T19:57:51.705Z,384.80
2018-11-07T20:00:20.761Z,371.93
2018-11-07T20:02:49.824Z,388.87
2018-11-07T20:05:21.676Z,381.23
2018-11-07T20:07:50.804Z,382.33
2018-11-07T20:10:20.511Z,378.20
2018-11-07T20:12:49.489Z,386.90
2018-11-07T20:15:19.397Z,394.73
2018-11-07T20:17:48.754Z,389.63
2018-11-07T20:20:18.004Z,394.70
2018-11-07T20:22:47.156Z,432.40
2018-11-07T20:25:16.361Z,456.57
2018-11-07T20:27:45.745Z,440.17
2018-11-07T20:30:16.089Z,412.40
2018-11-07T20:32:45.172Z,404.37
2018-11-07T20:35:15.572Z,429.00
2018-11-07T20:37:44.606Z,419.87
2018-11-07T20:40:14.857Z,430.00
2018-11-07T20:42:43.949Z,401.10
2018-11-07T20:45:13.732Z,389.90
2018-11-07T20:47:42.807Z,360.23
2018-11-07T20:50:13.671Z,331.00
2018-11-07T20:52:43.250Z,320.57
2018-11-07T20:55:12.889Z,335.07
2018-11-07T20:57:41.879Z,347.93
2018-11-07T21:00:15.360Z,316.50
2018-11-07T21:02:44.927Z,344.63
2018-11-07T21:05:13.958Z,302.90
2018-11-07T21:07:43.227Z,327.97
2018-11-07T21:10:15.497Z,318.57
2018-11-07T21:12:44.929Z,314.70
2018-11-07T21:15:15.119Z,315.23
2018-11-07T21:17:44.560Z,334.00
2018-11-07T21:20:13.579Z,335.03
2018-11-07T21:22:43.016Z,322.03
2018-11-07T21:25:12.370Z,320.53
2018-11-07T21:27:41.345Z,326.30
2018-11-07T21:30:12.458Z,325.83
2018-11-07T21:32:41.915Z,317.60
2018-11-07T21:35:11.007Z,338.20
2018-11-07T21:37:40.303Z,310.10
2018-11-07T21:40:12.171Z,313.60
2018-11-07T21:42:41.222Z,288.37
2018-11-07T21:45:11.708Z,315.70
2018-11-07T21:47:41.385Z,321.20
2018-11-07T21:50:11.873Z,338.40
2018-11-07T21:52:41.606Z,335.20
2018-11-07T21:55:10.615Z,310.87
2018-11-07T21:57:40.040Z,311.43
2018-11-07T22:00:12.625Z,315.30
2018-11-07T22:02:41.698Z,307.30
2018-11-07T22:05:11.236Z,309.87
2018-11-07T22:07:40.389Z,321.03
2018-11-07T22:10:10.644Z,289.40
2018-11-07T22:12:39.659Z,306.37
2018-11-07T22:15:09.489Z,292.37
2018-11-07T22:17:38.539Z,300.13
2018-11-07T22:20:09.717Z,291.67
2018-11-07T22:22:38.879Z,318.03
2018-11-07T22:25:07.955Z,317.80
2018-11-07T22:27:37.091Z,313.67
2018-11-07T22:30:07.719Z,301.60
2018-11-07T22:32:37.120Z,320.53
2018-11-07T22:35:07.158Z,302.30
2018-11-07T22:37:36.182Z,331.53
2018-11-07T22:40:06.100Z,314.80
2018-11-07T22:42:35.122Z,355.87
2018-11-07T22:45:04.284Z,356.67
2018-11-07T22:47:33.391Z,382.83
2018-11-07T22:50:02.432Z,401.87
2018-11-07T22:52:31.469Z,392.37
2018-11-07T22:55:00.529Z,400.27
2018-11-07T22:57:29.535Z,375.07
2018-11-07T22:59:58.562Z,403.03
2018-11-07T23:02:27.570Z,380.67
2018-11-07T23:04:56.615Z,386.63
2018-11-07T23:07:25.627Z,385.00
2018-11-07T23:09:54.787Z,384.37
2018-11-07T23:12:23.826Z,388.33
2018-11-07T23:14:52.839Z,371.87
2018-11-07T23:17:22.065Z,371.30
2018-11-07T23:19:51.195Z,384.30
2018-11-07T23:22:20.254Z,369.43
2018-11-07T23:24:49.344Z,370.03
2018-11-07T23:27:18.437Z,358.63
2018-11-07T23:29:48.409Z,363.70
2018-11-07T23:32:18.300Z,355.73
2018-11-07T23:34:47.344Z,349.63
2018-11-07T23:37:16.442Z,333.73
2018-11-07T23:39:45.489Z,329.60
2018-11-07T23:42:14.812Z,337.63
2018-11-07T23:44:43.851Z,348.77
2018-11-07T23:47:13.008Z,313.33
2018-11-07T23:49:42.790Z,331.73
2018-11-07T23:52:14.911Z,303.63
2018-11-07T23:54:44.200Z,285.37
2018-11-07T23:57:13.439Z,300.23
2018-11-07T23:59:43.178Z,316.33
